Time;durP1;ratioP1;P1;durP2;ratioP2;P2;SDS_P1;SDS_P2;PMS_P1;PMS_P2;Temp;Humidity;BMP_temperature;BMP_pressure;BME280_temperature;BME280_humidity;BME280_pressure;Samples;Min_cycle;Max_cycle;Signal;HPM_P1;HPM_P2
2022/03/06 00:03:24;;;;;;;43.30;24.30;;;;;;;2.76;58.71;99640.88;233247;1220;139414;-71
2022/03/06 00:08:28;;;;;;;42.40;23.10;;;;;;;2.76;58.71;99636.67;232818;1222;138957;-64
2022/03/06 00:13:32;;;;;;;43.90;23.80;;;;;;;2.75;58.86;99638.43;232965;1220;138645;-63
2022/03/06 00:18:37;;;;;;;41.10;23.90;;;;;;;2.74;58.81;99637.06;232914;1221;138454;-64
2022/03/06 00:23:40;;;;;;;46.00;23.70;;;;;;;2.73;58.80;99634.63;232890;1221;139827;-64
2022/03/06 00:28:43;;;;;;;46.60;24.10;;;;;;;2.72;58.89;99626.59;233000;1220;139350;-68
2022/03/06 00:33:47;;;;;;;38.70;22.60;;;;;;;2.70;58.82;99625.40;232993;1221;138958;-63
2022/03/06 00:38:50;;;;;;;44.30;24.40;;;;;;;2.68;58.82;99628.59;233002;1220;138831;-62
2022/03/06 00:43:53;;;;;;;37.60;23.70;;;;;;;2.66;58.94;99630.39;232981;1221;139292;-65
2022/03/06 00:48:56;;;;;;;45.50;24.90;;;;;;;2.66;58.97;99629.53;232962;1221;138824;-67
2022/03/06 00:54:00;;;;;;;41.50;24.10;;;;;;;2.67;59.18;99630.89;233125;1220;138462;-63
2022/03/06 00:59:03;;;;;;;47.90;26.10;;;;;;;2.66;58.98;99632.14;232656;1220;138049;-65
2022/03/06 01:04:06;;;;;;;45.30;25.30;;;;;;;2.66;59.18;99634.09;233108;1220;138633;-62
2022/03/06 01:09:09;;;;;;;44.30;25.70;;;;;;;2.67;59.16;99629.84;232967;1220;139067;-62
2022/03/06 01:14:12;;;;;;;42.20;24.60;;;;;;;2.69;59.29;99627.20;232903;1220;138697;-65
2022/03/06 01:19:15;;;;;;;44.20;24.90;;;;;;;2.70;59.23;99626.11;232999;1221;138869;-61
2022/03/06 01:24:18;;;;;;;44.50;25.50;;;;;;;2.72;59.21;99623.62;233167;1220;138119;-60
2022/03/06 01:29:22;;;;;;;47.10;25.40;;;;;;;2.74;59.13;99619.55;233165;1219;138171;-60
2022/03/06 01:34:25;;;;;;;41.30;25.40;;;;;;;2.73;59.30;99615.54;233144;1219;138820;-60
2022/03/06 01:39:28;;;;;;;43.40;25.40;;;;;;;2.72;59.14;99623.80;233388;1219;138699;-60
2022/03/06 01:44:31;;;;;;;40.10;25.00;;;;;;;2.72;59.20;99625.04;233119;1219;138758;-63
2022/03/06 01:49:34;;;;;;;41.40;25.40;;;;;;;2.70;59.39;99619.62;233078;1219;137955;-63
2022/03/06 01:54:37;;;;;;;39.30;23.90;;;;;;;2.70;59.30;99623.30;233203;1220;140500;-62
2022/03/06 01:59:40;;;;;;;40.20;23.10;;;;;;;2.70;59.27;99619.64;233146;1219;138751;-62
2022/03/06 02:04:43;;;;;;;40.90;24.40;;;;;;;2.68;59.37;99619.14;233064;1219;138601;-63
2022/03/06 02:09:46;;;;;;;38.20;24.10;;;;;;;2.67;59.28;99621.63;233370;1219;138397;-60
2022/03/06 02:14:54;;;;;;;38.10;23.90;;;;;;;2.65;59.27;99623.58;233219;1219;138504;-60
2022/03/06 02:20:10;;;;;;;37.40;22.20;;;;;;;2.64;59.31;99620.27;233067;1219;139278;-60
2022/03/06 02:25:19;;;;;;;36.00;23.20;;;;;;;2.63;59.34;99615.56;233145;1220;138683;-65
2022/03/06 02:30:25;;;;;;;38.40;23.10;;;;;;;2.62;59.16;99613.30;233122;1219;138637;-66
2022/03/06 02:35:28;;;;;;;39.30;23.50;;;;;;;2.63;59.23;99611.17;233119;1219;138819;-65
2022/03/06 02:40:37;;;;;;;42.30;23.70;;;;;;;2.64;59.27;99610.80;233070;1219;138524;-64
2022/03/06 02:45:41;;;;;;;39.70;23.20;;;;;;;2.62;59.18;99608.94;233291;1220;138590;-67
2022/03/06 02:50:44;;;;;;;44.70;24.90;;;;;;;2.61;59.23;99607.02;233242;1218;139461;-64
2022/03/06 02:55:47;;;;;;;42.00;24.90;;;;;;;2.61;59.34;99601.08;233187;1218;138706;-70
2022/03/06 03:00:50;;;;;;;41.30;23.80;;;;;;;2.59;59.26;99600.05;233116;1219;138106;-65
2022/03/06 03:05:54;;;;;;;40.80;23.10;;;;;;;2.58;59.18;99599.36;233043;1219;139006;-66
2022/03/06 03:10:56;;;;;;;38.90;23.20;;;;;;;2.59;59.25;99597.44;233089;1219;139236;-66
2022/03/06 03:16:00;;;;;;;36.40;22.00;;;;;;;2.57;59.20;99599.57;233240;1218;138723;-66
2022/03/06 03:21:03;;;;;;;33.60;20.80;;;;;;;2.56;59.22;99599.23;233213;1219;139110;-61
2022/03/06 03:26:06;;;;;;;33.60;20.20;;;;;;;2.56;59.24;99603.10;233200;1219;139048;-62
2022/03/06 03:31:09;;;;;;;23.20;13.90;;;;;;;2.55;59.12;99603.46;233097;1219;139998;-62
2022/03/06 03:36:13;;;;;;;25.10;14.70;;;;;;;2.56;58.42;99603.81;232980;1219;139752;-63
2022/03/06 03:41:16;;;;;;;28.70;16.60;;;;;;;2.56;58.28;99606.41;233132;1220;138948;-62
2022/03/06 03:46:20;;;;;;;28.70;15.90;;;;;;;2.59;58.16;99602.31;233192;1219;138691;-63
2022/03/06 03:51:23;;;;;;;26.70;16.20;;;;;;;2.61;58.10;99602.98;232969;1219;138849;-63
2022/03/06 03:56:26;;;;;;;24.60;15.10;;;;;;;2.60;58.00;99604.76;233081;1219;138413;-64
2022/03/06 04:01:29;;;;;;;29.40;15.80;;;;;;;2.60;57.85;99605.29;233062;1219;151768;-62
2022/03/06 04:06:32;;;;;;;25.40;15.10;;;;;;;2.62;57.75;99609.44;233145;1219;138412;-65
2022/03/06 04:11:35;;;;;;;29.90;15.40;;;;;;;2.64;57.55;99609.77;233179;1219;139450;-62
2022/03/06 04:16:38;;;;;;;26.50;15.10;;;;;;;2.62;57.44;99609.64;233136;1219;138423;-62
2022/03/06 04:21:42;;;;;;;25.50;14.90;;;;;;;2.62;57.42;99611.90;233199;1218;138375;-63
2022/03/06 04:26:44;;;;;;;24.90;14.50;;;;;;;2.58;57.36;99611.27;233109;1219;139138;-63
2022/03/06 04:31:47;;;;;;;21.60;13.20;;;;;;;2.56;57.22;99612.72;233128;1219;138836;-63
2022/03/06 04:36:51;;;;;;;21.10;13.00;;;;;;;2.57;57.12;99618.64;233171;1218;138759;-63
2022/03/06 04:41:54;;;;;;;24.20;12.50;;;;;;;2.58;57.25;99617.77;233035;1219;138638;-63
2022/03/06 04:46:57;;;;;;;18.60;12.00;;;;;;;2.59;57.20;99620.20;233050;1219;138806;-63
2022/03/06 04:52:00;;;;;;;18.00;11.60;;;;;;;2.59;57.11;99621.23;233157;1219;139370;-62
2022/03/06 04:57:03;;;;;;;21.00;12.40;;;;;;;2.58;56.98;99619.69;233216;1219;139418;-64
2022/03/06 05:02:06;;;;;;;21.00;12.40;;;;;;;2.60;56.97;99621.94;233097;1219;138836;-63
2022/03/06 05:07:09;;;;;;;21.60;12.40;;;;;;;2.60;56.89;99627.88;233032;1219;138574;-64
2022/03/06 05:12:12;;;;;;;26.10;13.00;;;;;;;2.62;56.94;99635.04;233136;1219;138981;-64
2022/03/06 05:17:16;;;;;;;19.90;12.50;;;;;;;2.63;56.97;99632.91;233184;1219;138824;-63
2022/03/06 05:22:20;;;;;;;22.20;13.80;;;;;;;2.63;57.04;99632.56;233227;1219;138557;-64
2022/03/06 05:27:23;;;;;;;24.50;13.10;;;;;;;2.61;56.96;99638.38;233157;1219;139476;-64
2022/03/06 05:32:25;;;;;;;22.60;12.40;;;;;;;2.59;56.93;99636.33;233142;1219;138644;-64
2022/03/06 05:37:29;;;;;;;19.40;12.00;;;;;;;2.61;56.75;99633.48;233109;1219;140548;-66
2022/03/06 05:42:33;;;;;;;22.30;12.60;;;;;;;2.63;56.68;99628.02;233124;1219;138861;-66
2022/03/06 05:47:36;;;;;;;21.80;12.70;;;;;;;2.62;56.68;99625.92;233140;1219;138758;-63
2022/03/06 05:52:39;;;;;;;22.20;13.00;;;;;;;2.63;56.51;99624.52;233107;1219;138968;-65
2022/03/06 05:57:44;;;;;;;20.40;12.50;;;;;;;2.63;56.57;99625.21;233259;1218;139439;-61
2022/03/06 06:02:48;;;;;;;18.40;11.60;;;;;;;2.62;56.35;99621.36;233186;1218;139627;-62
2022/03/06 06:07:51;;;;;;;19.60;11.20;;;;;;;2.63;56.35;99623.64;233134;1219;138716;-66
2022/03/06 06:12:54;;;;;;;21.10;11.10;;;;;;;2.64;56.21;99625.35;233200;1218;138452;-62
2022/03/06 06:17:57;;;;;;;17.30;10.70;;;;;;;2.66;56.10;99625.31;232871;1219;140020;-64
2022/03/06 06:23:00;;;;;;;18.10;10.30;;;;;;;2.66;56.02;99629.70;233045;1219;139245;-64
2022/03/06 06:28:04;;;;;;;20.20;11.80;;;;;;;2.67;55.91;99630.71;233254;1219;139624;-66
2022/03/06 06:33:07;;;;;;;19.50;10.70;;;;;;;2.68;55.89;99628.77;233134;1219;138833;-64
2022/03/06 06:38:10;;;;;;;17.60;10.70;;;;;;;2.68;55.75;99631.75;233098;1217;140770;-66
2022/03/06 06:43:13;;;;;;;21.00;11.00;;;;;;;2.69;55.90;99634.19;233111;1219;138756;-63
2022/03/06 06:48:16;;;;;;;17.80;10.30;;;;;;;2.70;55.70;99637.13;233242;1219;139040;-62
2022/03/06 06:53:19;;;;;;;17.50;10.30;;;;;;;2.73;55.69;99638.33;233145;1219;138419;-66
2022/03/06 06:58:22;;;;;;;15.50;9.30;;;;;;;2.72;55.39;99640.09;233269;1219;138275;-65
2022/03/06 07:03:25;;;;;;;15.50;9.90;;;;;;;2.72;55.29;99644.10;233149;1219;138949;-63
2022/03/06 07:08:28;;;;;;;20.30;9.50;;;;;;;2.73;55.24;99650.91;233194;1218;138028;-65
2022/03/06 07:13:31;;;;;;;13.70;8.10;;;;;;;2.75;55.10;99651.75;233154;1219;138577;-63
2022/03/06 07:18:34;;;;;;;12.20;7.60;;;;;;;2.79;55.00;99654.13;233191;1219;138569;-65
2022/03/06 07:23:37;;;;;;;11.20;6.30;;;;;;;2.82;54.70;99650.22;233056;1217;138184;-62
2022/03/06 07:28:40;;;;;;;12.60;6.50;;;;;;;2.84;54.18;99653.48;233103;1219;139487;-63
2022/03/06 07:33:43;;;;;;;9.80;6.00;;;;;;;2.84;54.18;99651.91;233286;1219;138299;-66
2022/03/06 07:38:47;;;;;;;8.50;5.30;;;;;;;2.88;53.83;99653.06;233137;1219;138244;-64
2022/03/06 07:43:49;;;;;;;8.30;5.20;;;;;;;2.93;53.65;99649.64;233104;1219;139239;-63
2022/03/06 07:48:52;;;;;;;9.40;5.70;;;;;;;2.95;53.24;99647.14;232990;1218;138383;-64
2022/03/06 07:53:55;;;;;;;262.10;164.10;;;;;;;2.99;53.33;99645.65;232776;1219;138574;-62
2022/03/06 07:58:58;;;;;;;45.80;26.90;;;;;;;3.12;53.64;99643.27;232986;1219;138719;-65
2022/03/06 08:04:01;;;;;;;16.80;9.40;;;;;;;3.26;53.23;99640.14;233446;1219;138253;-65
2022/03/06 08:09:04;;;;;;;9.70;6.40;;;;;;;3.25;52.63;99635.23;233048;1219;138827;-65
2022/03/06 08:14:07;;;;;;;8.90;5.80;;;;;;;3.22;52.35;99635.14;232984;1219;140044;-67
2022/03/06 08:19:10;;;;;;;126.10;77.70;;;;;;;3.21;52.32;99635.70;233135;1219;138177;-64
2022/03/06 08:24:14;;;;;;;14.60;8.90;;;;;;;3.35;52.49;99629.77;232947;1219;138596;-64
2022/03/06 08:29:17;;;;;;;9.10;5.00;;;;;;;3.36;51.84;99628.17;233038;1219;138519;-64
2022/03/06 08:34:24;;;;;;;7.70;4.40;;;;;;;3.33;51.86;99622.79;233271;1219;139619;-68
2022/03/06 08:39:27;;;;;;;7.70;4.80;;;;;;;3.31;51.51;99621.42;233010;1219;138472;-63
2022/03/06 08:44:30;;;;;;;6.40;3.90;;;;;;;3.28;51.32;99623.79;233012;1217;138401;-62
2022/03/06 08:49:33;;;;;;;6.00;4.00;;;;;;;3.28;51.39;99626.77;233165;1218;138701;-65
2022/03/06 08:54:36;;;;;;;5.20;4.10;;;;;;;3.31;51.18;99622.32;232978;1219;138328;-64
2022/03/06 08:59:39;;;;;;;7.70;4.50;;;;;;;3.34;51.07;99623.13;233057;1219;138587;-65
2022/03/06 09:04:42;;;;;;;7.30;4.50;;;;;;;3.36;50.90;99619.58;233132;1219;138052;-67
2022/03/06 09:09:46;;;;;;;621.80;384.90;;;;;;;3.37;50.89;99624.98;233308;1219;138300;-66
2022/03/06 09:14:49;;;;;;;34.30;18.10;;;;;;;3.47;51.34;99625.26;233131;1219;140158;-67
2022/03/06 09:19:52;;;;;;;11.40;7.00;;;;;;;3.54;50.82;99620.70;233255;1219;138279;-69
2022/03/06 09:24:55;;;;;;;9.80;4.80;;;;;;;3.57;50.72;99617.84;233151;1219;138687;-68
2022/03/06 09:29:58;;;;;;;9.50;5.10;;;;;;;3.55;50.53;99622.78;233225;1219;139424;-65
2022/03/06 09:35:01;;;;;;;9.20;4.80;;;;;;;3.53;50.31;99618.63;233155;1218;138796;-65
2022/03/06 09:40:07;;;;;;;;;;;;;;;3.62;50.71;99617.36;233377;1219;137843;-67
2022/03/06 09:45:12;;;;;;;12.70;7.30;;;;;;;3.77;50.57;99614.02;233076;1219;124451;-67
2022/03/06 09:50:16;;;;;;;8.50;4.70;;;;;;;3.72;50.18;99617.80;233276;1219;138562;-65
2022/03/06 09:55:19;;;;;;;8.50;5.20;;;;;;;3.68;49.84;99616.50;233063;1219;140476;-68
2022/03/06 10:00:22;;;;;;;6.90;4.50;;;;;;;3.64;49.56;99615.38;233304;1218;137926;-65
2022/03/06 10:05:29;;;;;;;7.10;4.90;;;;;;;3.61;49.61;99612.84;233226;1218;138429;-67
2022/03/06 10:10:38;;;;;;;259.60;184.30;;;;;;;3.62;49.89;99620.17;233132;1217;138706;-69
2022/03/06 10:16:15;;;;;;;12.80;8.50;;;;;;;3.74;49.84;99613.56;233270;1218;139278;-69
2022/03/06 10:21:21;;;;;;;6.30;4.60;;;;;;;3.75;49.53;99609.33;233247;1219;138235;-68
2022/03/06 10:26:27;;;;;;;7.20;4.50;;;;;;;3.73;49.10;99607.09;233142;1219;137995;-62
2022/03/06 10:31:32;;;;;;;6.60;3.90;;;;;;;3.70;49.26;99604.90;233206;1219;138567;-61
2022/03/06 10:36:35;;;;;;;;;;;;;;;3.69;49.17;99605.42;233149;1219;138427;-63
2022/03/06 10:41:41;;;;;;;69.70;27.00;;;;;;;3.78;49.55;99599.77;233169;1218;125353;-63
2022/03/06 10:47:05;;;;;;;12.50;6.50;;;;;;;3.95;49.63;99593.71;233046;1219;139493;-66
2022/03/06 10:52:18;;;;;;;8.60;4.90;;;;;;;3.99;49.28;99588.01;233059;1218;138416;-63
2022/03/06 10:57:22;;;;;;;8.10;4.40;;;;;;;4.02;49.34;99586.33;233022;1219;138554;-68
2022/03/06 11:02:26;;;;;;;9.30;4.90;;;;;;;4.04;48.90;99579.97;233012;1219;138410;-59
2022/03/06 11:07:29;;;;;;;6.30;3.60;;;;;;;4.03;48.77;99574.36;233095;1219;137768;-64
2022/03/06 11:12:33;;;;;;;163.90;90.20;;;;;;;4.04;48.82;99573.64;232743;1218;138570;-64
2022/03/06 11:17:36;;;;;;;18.20;9.80;;;;;;;4.11;49.03;99564.67;233124;1219;139265;-65
2022/03/06 11:22:46;;;;;;;7.60;4.80;;;;;;;4.15;48.75;99557.18;233034;1219;138157;-62
2022/03/06 11:28:18;;;;;;;6.10;4.30;;;;;;;4.15;48.34;99550.00;233032;1218;138794;-65
2022/03/06 11:33:21;;;;;;;5.70;4.10;;;;;;;4.17;48.45;99541.85;233255;1219;138432;-65
2022/03/06 11:38:39;;;;;;;29.20;16.70;;;;;;;4.17;48.74;99533.95;233498;1217;138249;-65
2022/03/06 11:43:50;;;;;;;15.10;7.90;;;;;;;4.23;48.75;99529.20;233685;1217;138322;-66
2022/03/06 11:48:57;;;;;;;8.10;4.80;;;;;;;4.22;48.40;99528.89;233459;1219;138239;-65
2022/03/06 11:54:05;;;;;;;11.50;5.20;;;;;;;4.18;48.50;99528.48;233573;1219;138528;-64
2022/03/06 11:59:10;;;;;;;9.30;4.60;;;;;;;4.14;48.38;99521.23;233609;1217;138624;-65
2022/03/06 12:04:13;;;;;;;8.20;4.30;;;;;;;4.13;48.14;99516.88;233790;1217;138573;-61
2022/03/06 12:09:18;;;;;;;6.50;4.30;;;;;;;4.10;48.05;99515.18;233571;1219;138520;-64
2022/03/06 12:14:29;;;;;;;8.60;4.60;;;;;;;4.12;48.25;99511.81;233474;1219;138798;-63
2022/03/06 12:19:53;;;;;;;8.60;4.80;;;;;;;4.13;48.38;99504.02;233501;1217;138138;-62
2022/03/06 12:25:11;;;;;;;7.60;4.70;;;;;;;4.13;48.03;99501.03;233756;1217;138492;-66
2022/03/06 12:30:17;;;;;;;217.60;124.20;;;;;;;4.13;48.05;99491.04;233641;1217;137715;-62
2022/03/06 12:35:22;;;;;;;17.80;9.80;;;;;;;4.17;48.43;99491.45;233352;1219;138468;-64
2022/03/06 12:40:30;;;;;;;11.00;6.00;;;;;;;4.16;48.02;99489.55;233737;1217;138484;-64
2022/03/06 12:45:37;;;;;;;7.00;4.60;;;;;;;4.11;47.97;99481.83;233728;1217;140202;-63
2022/03/06 12:50:42;;;;;;;7.70;4.60;;;;;;;4.08;47.93;99484.55;233663;1217;138315;-65
2022/03/06 12:55:45;;;;;;;5.80;4.20;;;;;;;4.03;47.89;99484.30;233719;1219;138019;-64
2022/03/06 13:00:50;;;;;;;444.80;317.60;;;;;;;3.99;47.90;99478.98;233502;1217;138551;-64
2022/03/06 13:05:53;;;;;;;23.50;15.30;;;;;;;4.07;48.29;99480.36;233781;1217;139157;-62
2022/03/06 13:11:05;;;;;;;12.50;6.30;;;;;;;4.06;48.17;99479.14;233678;1219;139258;-65
2022/03/06 13:16:09;;;;;;;7.70;5.20;;;;;;;4.02;48.01;99475.20;233686;1219;138246;-65
2022/03/06 13:21:20;;;;;;;7.00;4.30;;;;;;;3.98;47.84;99474.27;233772;1217;139041;-64
2022/03/06 13:26:23;;;;;;;6.70;4.70;;;;;;;3.93;47.96;99470.20;233816;1217;138650;-63
2022/03/06 13:31:27;;;;;;;6.30;4.40;;;;;;;3.90;47.92;99471.69;233669;1217;138200;-65
2022/03/06 13:36:30;;;;;;;6.40;4.50;;;;;;;3.86;47.88;99465.67;233594;1219;138931;-62
2022/03/06 13:41:34;;;;;;;7.10;4.50;;;;;;;3.85;48.01;99463.05;233685;1217;138091;-65
2022/03/06 13:46:39;;;;;;;9.20;4.80;;;;;;;3.84;47.90;99463.97;233581;1217;138680;-63
2022/03/06 13:51:43;;;;;;;267.40;168.10;;;;;;;3.97;49.65;99457.95;233535;1219;139497;-62
2022/03/06 13:56:46;;;;;;;19.40;11.90;;;;;;;5.07;50.31;99454.76;233475;1217;139106;-64
2022/03/06 14:01:50;;;;;;;9.30;6.10;;;;;;;5.04;47.99;99450.67;233764;1217;138363;-64
2022/03/06 14:07:01;;;;;;;7.50;4.40;;;;;;;4.78;47.43;99449.55;233604;1217;138291;-65
2022/03/06 14:12:11;;;;;;;8.80;4.30;;;;;;;4.52;47.38;99449.83;233484;1219;139221;-63
2022/03/06 14:17:16;;;;;;;6.80;4.90;;;;;;;4.34;47.35;99454.97;233524;1219;140298;-63
2022/03/06 14:22:19;;;;;;;16.80;9.60;;;;;;;5.00;51.46;99452.65;233689;1219;138751;-61
2022/03/06 14:27:22;;;;;;;9.80;5.40;;;;;;;5.59;48.45;99451.80;233664;1219;139251;-63
2022/03/06 14:32:26;;;;;;;8.30;5.50;;;;;;;5.24;46.65;99450.67;233622;1215;139313;-62
2022/03/06 14:37:28;;;;;;;9.20;5.60;;;;;;;4.85;46.68;99449.68;233779;1216;139151;-63
2022/03/06 14:42:32;;;;;;;8.00;4.80;;;;;;;4.56;46.86;99453.42;233623;1217;139502;-62
2022/03/06 14:47:54;;;;;;;7.40;4.80;;;;;;;4.34;46.87;99456.71;233583;1219;138698;-61
2022/03/06 14:52:57;;;;;;;7.90;4.70;;;;;;;4.18;47.15;99455.45;233375;1217;139224;-61
2022/03/06 14:58:01;;;;;;;8.00;4.90;;;;;;;4.05;46.99;99456.67;233969;1215;137583;-59
2022/03/06 15:03:04;;;;;;;3.90;3.00;;;;;;;4.76;52.28;99455.82;233635;1217;138672;-63
2022/03/06 15:08:07;;;;;;;4.40;3.40;;;;;;;8.29;54.96;99439.25;233619;1218;138210;-60
2022/03/06 15:13:11;;;;;;;5.40;3.40;;;;;;;10.53;50.86;99430.48;233744;1217;138477;-64
2022/03/06 15:18:14;;;;;;;5.30;3.20;;;;;;;11.64;47.91;99422.33;233712;1217;139645;-66
2022/03/06 15:23:19;;;;;;;4.60;3.10;;;;;;;12.21;45.81;99418.15;233609;1217;139907;-66
2022/03/06 15:28:23;;;;;;;4.90;3.40;;;;;;;12.52;44.64;99415.15;233714;1218;142361;-63
2022/03/06 15:33:26;;;;;;;4.40;3.30;;;;;;;12.67;43.32;99415.40;233553;1217;138833;-61
2022/03/06 15:38:29;;;;;;;4.60;3.30;;;;;;;12.63;42.51;99416.05;233716;1218;138136;-61
2022/03/06 15:43:34;;;;;;;8.10;4.50;;;;;;;12.60;41.47;99417.52;233690;1217;138606;-64
2022/03/06 15:48:37;;;;;;;6.60;5.10;;;;;;;12.04;39.87;99416.67;233456;1219;140176;-63
2022/03/06 15:53:40;;;;;;;12.20;8.20;;;;;;;10.42;38.43;99432.02;233648;1217;139649;-64
2022/03/06 15:58:45;;;;;;;7.90;5.50;;;;;;;8.97;38.46;99437.77;233797;1217;139341;-65
2022/03/06 16:03:49;;;;;;;8.40;5.70;;;;;;;7.76;39.31;99447.27;233793;1217;137988;-65
2022/03/06 16:08:52;;;;;;;10.10;6.90;;;;;;;6.84;39.63;99455.38;233656;1219;138016;-63
2022/03/06 16:13:55;;;;;;;10.30;6.30;;;;;;;6.13;40.61;99457.76;233720;1217;138067;-65
2022/03/06 16:18:58;;;;;;;10.30;6.40;;;;;;;5.61;40.95;99463.33;233865;1216;138068;-60
2022/03/06 16:24:01;;;;;;;12.40;7.70;;;;;;;5.16;41.51;99461.87;233837;1217;137950;-65
2022/03/06 16:29:05;;;;;;;14.20;7.30;;;;;;;4.81;41.89;99465.80;233635;1219;138801;-62
2022/03/06 16:34:08;;;;;;;17.50;8.30;;;;;;;4.52;42.46;99467.77;233886;1217;139263;-61
2022/03/06 16:39:11;;;;;;;17.40;8.60;;;;;;;4.28;42.92;99470.95;233731;1217;138494;-63
2022/03/06 16:44:14;;;;;;;12.50;7.70;;;;;;;4.10;43.18;99473.21;233599;1217;138068;-63
2022/03/06 16:49:18;;;;;;;14.50;7.90;;;;;;;3.95;43.37;99470.85;233430;1217;138402;-62
2022/03/06 16:54:21;;;;;;;16.70;9.00;;;;;;;3.82;43.78;99474.01;233360;1219;139797;-66
2022/03/06 16:59:24;;;;;;;22.30;11.40;;;;;;;3.72;43.85;99466.04;233614;1219;138656;-65
2022/03/06 17:04:31;;;;;;;17.30;10.30;;;;;;;3.62;44.21;99468.43;233575;1219;138154;-62
2022/03/06 17:09:35;;;;;;;19.70;10.10;;;;;;;3.52;44.30;99470.94;233610;1217;139159;-64
2022/03/06 17:14:39;;;;;;;15.00;9.10;;;;;;;3.46;44.66;99471.81;233628;1217;138742;-65
2022/03/06 17:19:42;;;;;;;16.70;8.20;;;;;;;3.41;44.63;99479.33;233563;1219;137887;-64
2022/03/06 17:24:45;;;;;;;53.10;33.40;;;;;;;3.37;44.86;99485.56;233611;1217;138982;-63
2022/03/06 17:29:48;;;;;;;20.60;11.60;;;;;;;3.43;45.11;99489.09;233749;1218;138662;-63
2022/03/06 17:34:51;;;;;;;11.50;7.90;;;;;;;3.42;44.93;99486.66;233710;1217;139688;-63
2022/03/06 17:39:54;;;;;;;12.30;7.30;;;;;;;3.34;44.94;99486.34;233930;1217;138511;-64
2022/03/06 17:45:00;;;;;;;11.70;7.90;;;;;;;3.26;44.79;99482.85;233654;1217;138351;-63
2022/03/06 17:50:04;;;;;;;12.20;8.20;;;;;;;3.19;44.96;99481.80;233590;1219;138842;-63
2022/03/06 17:55:08;;;;;;;12.50;8.00;;;;;;;3.17;45.21;99480.80;233526;1217;138351;-63
2022/03/06 18:00:11;;;;;;;13.00;7.80;;;;;;;3.14;45.46;99480.19;233732;1217;138770;-63
2022/03/06 18:05:19;;;;;;;14.40;8.80;;;;;;;3.12;45.32;99483.57;233688;1217;139915;-62
2022/03/06 18:10:22;;;;;;;14.40;9.20;;;;;;;3.10;45.62;99485.71;233562;1219;138790;-62
2022/03/06 18:15:30;;;;;;;14.50;9.50;;;;;;;3.07;45.55;99487.33;233499;1219;138726;-62
2022/03/06 18:20:47;;;;;;;15.90;10.10;;;;;;;3.06;45.63;99482.13;233544;1219;138359;-63
2022/03/06 18:25:50;;;;;;;20.50;10.40;;;;;;;3.04;45.54;99476.02;233567;1219;138608;-65
2022/03/06 18:31:05;;;;;;;15.50;10.20;;;;;;;3.05;45.70;99479.52;233647;1217;139455;-62
2022/03/06 18:36:08;;;;;;;19.20;11.10;;;;;;;3.03;45.63;99479.39;233605;1217;138874;-63
2022/03/06 18:41:13;;;;;;;15.00;10.00;;;;;;;3.02;45.65;99487.48;233594;1218;139103;-64
2022/03/06 18:46:16;;;;;;;16.20;9.80;;;;;;;3.02;45.68;99487.83;233797;1217;140600;-62
2022/03/06 18:51:21;;;;;;;47.20;29.90;;;;;;;3.03;45.78;99485.69;233772;1215;139150;-56
2022/03/06 18:56:24;;;;;;;30.70;18.50;;;;;;;3.26;46.61;99488.64;233686;1217;138760;-62
2022/03/06 19:01:27;;;;;;;27.10;14.70;;;;;;;3.37;45.68;99486.10;233555;1219;139685;-62
2022/03/06 19:06:31;;;;;;;28.30;15.50;;;;;;;3.29;45.32;99483.65;233530;1217;139517;-63
2022/03/06 19:11:39;;;;;;;24.80;14.50;;;;;;;3.19;45.12;99484.44;233784;1217;138765;-62
2022/03/06 19:16:44;;;;;;;27.80;14.20;;;;;;;3.09;45.35;99485.73;233730;1217;138562;-62
2022/03/06 19:21:47;;;;;;;21.20;12.60;;;;;;;3.02;45.43;99483.81;233752;1218;138430;-62
2022/03/06 19:26:51;;;;;;;21.70;13.40;;;;;;;2.99;45.43;99487.02;233650;1217;138959;-63
2022/03/06 19:31:57;;;;;;;20.40;12.20;;;;;;;2.98;45.43;99484.07;233550;1217;139017;-63
2022/03/06 19:37:01;;;;;;;20.50;12.90;;;;;;;2.97;45.46;99481.99;233627;1217;138280;-63
2022/03/06 19:42:05;;;;;;;22.40;13.50;;;;;;;2.94;45.38;99487.30;233591;1218;138693;-63
2022/03/06 19:47:11;;;;;;;26.90;15.70;;;;;;;2.94;45.67;99484.86;233324;1218;138801;-62
2022/03/06 19:52:15;;;;;;;24.70;13.60;;;;;;;2.93;45.67;99484.90;233727;1217;139192;-62
2022/03/06 19:57:21;;;;;;;20.40;12.70;;;;;;;2.90;45.52;99483.03;233555;1219;138674;-63
2022/03/06 20:02:24;;;;;;;20.20;13.00;;;;;;;2.89;45.60;99488.67;233586;1219;139266;-62
2022/03/06 20:07:31;;;;;;;21.70;13.50;;;;;;;2.88;45.71;99488.16;233424;1219;138288;-62
2022/03/06 20:12:34;;;;;;;22.10;13.40;;;;;;;2.87;45.89;99486.29;233767;1217;138347;-62
2022/03/06 20:17:42;;;;;;;22.00;13.60;;;;;;;2.83;45.98;99495.11;233477;1219;139422;-61
2022/03/06 20:22:46;;;;;;;21.00;12.90;;;;;;;2.80;45.94;99499.02;233594;1218;138676;-62
2022/03/06 20:27:52;;;;;;;18.50;12.80;;;;;;;2.83;45.91;99498.63;233713;1217;138993;-62
2022/03/06 20:33:15;;;;;;;28.40;18.00;;;;;;;3.00;47.12;99499.61;233476;1217;138330;-61
2022/03/06 20:38:20;;;;;;;26.80;16.00;;;;;;;3.30;46.36;99502.55;233317;1217;138716;-62
2022/03/06 20:43:24;;;;;;;26.50;15.70;;;;;;;3.22;45.90;99505.05;233266;1219;138923;-62
2022/03/06 20:48:27;;;;;;;29.20;17.30;;;;;;;3.11;46.15;99504.80;233613;1219;139504;-63
2022/03/06 20:53:31;;;;;;;28.30;18.20;;;;;;;3.01;45.85;99505.04;233814;1217;138621;-61
2022/03/06 20:58:34;;;;;;;30.40;18.90;;;;;;;2.93;46.11;99510.14;233851;1217;138827;-62
2022/03/06 21:03:40;;;;;;;30.10;18.90;;;;;;;2.89;46.33;99510.40;233677;1218;138861;-63
2022/03/06 21:08:43;;;;;;;31.00;19.10;;;;;;;2.86;46.57;99508.55;233533;1219;139282;-62
2022/03/06 21:13:46;;;;;;;31.60;19.20;;;;;;;2.84;46.44;99508.23;233645;1218;138510;-62
2022/03/06 21:18:49;;;;;;;35.10;20.70;;;;;;;2.81;46.43;99508.11;233444;1219;141177;-62
2022/03/06 21:23:52;;;;;;;37.40;22.10;;;;;;;2.80;46.73;99506.75;233626;1219;138589;-64
2022/03/06 21:28:57;;;;;;;33.80;20.30;;;;;;;2.78;46.74;99504.70;233637;1219;139416;-64
2022/03/06 21:34:00;;;;;;;34.80;20.50;;;;;;;2.74;46.83;99506.55;233710;1218;139022;-63
2022/03/06 21:39:03;;;;;;;29.10;17.60;;;;;;;2.72;47.00;99513.08;233657;1219;138773;-64
2022/03/06 21:44:06;;;;;;;29.10;17.10;;;;;;;2.73;46.87;99513.21;233191;1217;139580;-65
2022/03/06 21:49:09;;;;;;;28.90;17.10;;;;;;;2.75;46.81;99514.92;233041;1219;138822;-64
2022/03/06 21:54:12;;;;;;;28.30;16.10;;;;;;;2.74;46.82;99511.26;233042;1219;138420;-62
2022/03/06 21:59:17;;;;;;;26.10;16.00;;;;;;;2.74;46.62;99514.42;233139;1219;138779;-63
2022/03/06 22:04:20;;;;;;;24.70;15.80;;;;;;;2.75;46.50;99514.05;233232;1219;139196;-63
2022/03/06 22:09:24;;;;;;;24.30;15.20;;;;;;;2.72;46.38;99511.13;233114;1219;139413;-61
2022/03/06 22:14:27;;;;;;;22.80;15.50;;;;;;;2.69;46.26;99513.66;233125;1218;139238;-64
2022/03/06 22:19:31;;;;;;;24.90;15.40;;;;;;;2.68;46.23;99511.40;233123;1217;139014;-63
2022/03/06 22:24:34;;;;;;;23.70;15.00;;;;;;;2.68;46.36;99510.35;233175;1219;138956;-63
2022/03/06 22:29:37;;;;;;;21.70;14.00;;;;;;;2.69;46.29;99513.14;233149;1219;138914;-64
2022/03/06 22:34:40;;;;;;;20.40;13.80;;;;;;;2.69;46.12;99507.88;233305;1219;138829;-61
2022/03/06 22:39:43;;;;;;;23.60;15.10;;;;;;;2.69;46.03;99508.41;233172;1219;139506;-63
2022/03/06 22:44:46;;;;;;;27.80;18.30;;;;;;;2.68;46.56;99505.45;233167;1219;140086;-60
2022/03/06 22:49:49;;;;;;;28.90;18.20;;;;;;;2.70;47.12;99503.65;233140;1219;138547;-63
2022/03/06 22:54:52;;;;;;;27.80;18.40;;;;;;;2.68;47.62;99502.11;232914;1219;139570;-63
2022/03/06 22:59:55;;;;;;;62.90;40.00;;;;;;;2.70;48.43;99502.62;233039;1219;139298;-63
2022/03/06 23:10:19;;;;;;;31.00;20.20;;;;;;;2.77;48.85;99502.77;233308;1218;139715;-65
2022/03/06 23:15:22;;;;;;;28.40;18.90;;;;;;;2.68;49.04;99499.66;233189;1219;138983;-63
2022/03/06 23:20:25;;;;;;;28.80;18.30;;;;;;;2.63;49.23;99498.38;233133;1219;139154;-63